Flight Track Log - Related Links

Times and Time Zones

All times are in EDT time to prevent confusion due to time zone crossing. See the SKW5649 flight status page for this flight to view local times or setup timezone preferences in your user account.

Time Position Orientation Groundspeed Altitude Reporting Facility
EDT Latitude Longitude Course Direction KTS MPH feet Rate Location/Type
Fri 09:39:41 PM 39.9000 -104.7667 237° Southwest 237 273 8,300  Level Denver TRACON
Fri 09:40:41 PM 39.8500 -104.8500 232° Southwest 283 326 10,000 1,955 Climbing Denver TRACON
Fri 09:41:00 PM 39.7194 -105.0753 247° West  Level FlightAware Approximate
Fri 09:41:10 PM 39.8356 -104.8833 241° Southwest 287 330 11,200  Level Denver Center
Fri 09:42:00 PM 39.6743 -105.2106 247° West  Level FlightAware Approximate
Fri 09:42:13 PM 39.7875 -104.9808 237° Southwest 295 339 14,500  Level Denver Center
Fri 09:43:00 PM 39.6350 -105.3489 248° West  Level FlightAware Approximate
Fri 09:43:15 PM 39.7492 -105.0756 242° Southwest 303 349 16,200  Level Denver Center
Fri 09:44:00 PM 39.5929 -105.4857 248° West  Level FlightAware Approximate
Fri 09:44:17 PM 39.7069 -105.1922 245° Southwest 329 379 18,000  Level Denver Center
Fri 09:45:00 PM 39.5498 -105.6171 237° Southwest  Level FlightAware Approximate
Fri 09:45:19 PM 39.6667 -105.3044 245° Southwest 342 394 20,100  Level Denver Center
Fri 09:46:21 PM 39.6253 -105.4181 245° Southwest 351 404 21,800 1,452 Climbing Denver Center
Fri 09:47:23 PM 39.5786 -105.5425 244° Southwest 358 412 23,100 1,161 Climbing Denver Center
Fri 09:48:25 PM 39.5397 -105.6564 246° West 362 417 24,200 1,258 Climbing Denver Center
Fri 09:49:27 PM 39.5050 -105.7828 250° West 371 427 25,700 1,548 Climbing Denver Center
Fri 09:50:29 PM 39.4672 -105.9292 252° West 367 422 27,400 1,452 Climbing Denver Center
Fri 09:51:31 PM 39.4306 -106.0583 250° West 378 435 28,700 1,306 Climbing Denver Center
Fri 09:52:33 PM 39.3922 -106.1911 250° West 383 441 30,100 1,210 Climbing Denver Center
Fri 09:53:35 PM 39.3583 -106.3142 250° West 380 437 31,200 968 Climbing Denver Center
Fri 09:54:37 PM 39.3167 -106.4575 249° West 382 440 32,100 919 Climbing Denver Center
Fri 09:55:39 PM 39.2808 -106.5822 250° West 387 445 33,100 1,065 Climbing Denver Center
Fri 09:56:41 PM 39.2383 -106.7269 249° West 385 443 34,300 1,065 Climbing Denver Center
Fri 09:57:43 PM 39.1847 -106.8400 239° Southwest 384 442 35,300 871 Climbing Denver Center
Fri 09:58:45 PM 39.1314 -106.9525 239° Southwest 384 442 36,100 823 Climbing Denver Center
Fri 09:59:47 PM 39.0692 -107.0806 238° Southwest 378 435 37,000 677 Climbing Denver Center
Fri 10:00:49 PM 39.0153 -107.1917 238° Southwest 380 437 37,500 441 Climbing Denver Center
Fri 10:02:03 PM 38.9519 -107.3222 238° Southwest 383 441 38,000 221 Climbing Denver Center
Fri 10:03:05 PM 38.8808 -107.4689 238° Southwest 380 437 38,000  Level Denver Center
Fri 10:04:07 PM 38.8281 -107.5758 238° Southwest 374 430 38,000  Level Denver Center
Fri 10:05:09 PM 38.7764 -107.6831 238° Southwest 371 427 38,000  Level Denver Center
Fri 10:06:11 PM 38.7144 -107.8061 237° Southwest 369 425 38,000  Level Denver Center
Fri 10:07:13 PM 38.6597 -107.9189 238° Southwest 381 438 38,000  Level Denver Center
Fri 10:08:15 PM 38.5947 -108.0503 238° Southwest 388 447 38,000  Level Denver Center
Fri 10:09:17 PM 38.5383 -108.1642 238° Southwest 393 452 38,000  Level Denver Center
Fri 10:10:19 PM 38.4714 -108.2964 237° Southwest 396 456 38,000  Level Denver Center
Fri 10:11:21 PM 38.4156 -108.4097 238° Southwest 395 455 38,000  Level Denver Center
Fri 10:12:23 PM 38.3503 -108.5403 238° Southwest 392 451 38,000  Level Denver Center
Fri 10:13:25 PM 38.2942 -108.6508 237° Southwest 389 448 38,000  Level Denver Center
Fri 10:14:27 PM 38.2267 -108.7850 237° Southwest 397 457 38,000  Level Denver Center
Fri 10:15:29 PM 38.1694 -108.8972 237° Southwest 397 457 38,000  Level Denver Center
Fri 10:16:31 PM 38.1114 -109.0086 237° Southwest 395 455 38,000  Level Denver Center
Fri 10:17:33 PM 38.0467 -109.1364 237° Southwest 396 456 38,000  Level Denver Center
Fri 10:18:35 PM 37.9811 -109.2619 237° Southwest 386 444 38,000  Level Denver Center
Fri 10:19:37 PM 37.9236 -109.3747 237° Southwest 394 453 38,000  Level Denver Center
Fri 10:20:39 PM 37.8658 -109.4844 236° Southwest 392 451 38,000  Level Denver Center
Fri 10:21:40 PM 37.8081 -109.5956 237° Southwest 394 453 38,000  Level Denver Center
Fri 10:22:42 PM 37.7400 -109.7256 237° Southwest 397 457 38,000  Level Denver Center
Fri 10:23:44 PM 37.6711 -109.8561 236° Southwest 400 460 38,000  Level Denver Center
Fri 10:24:46 PM 37.6117 -109.9697 237° Southwest 404 465 38,000  Level Denver Center
Fri 10:25:47 PM 37.5422 -110.1022 237° Southwest 407 468 38,000  Level Denver Center
Fri 10:26:49 PM 37.4775 -110.2231 236° Southwest 409 471 38,000  Level Denver Center
Fri 10:27:51 PM 37.4222 -110.3278 236° Southwest 406 467 38,000  Level Denver Center
Fri 10:28:52 PM 37.3478 -110.4650 236° Southwest 397 457 38,000  Level Denver Center
Fri 10:29:54 PM 37.2864 -110.5806 236° Southwest 397 457 38,000  Level Denver Center
Fri 10:30:56 PM 37.2244 -110.6947 236° Southwest 396 456 38,000  Level Denver Center
Fri 10:31:58 PM 37.1639 -110.8097 237° Southwest 394 453 38,000  Level Denver Center
Fri 10:32:59 PM 37.1006 -110.9239 235° Southwest 397 457 38,000  Level Denver Center
Fri 10:34:01 PM 37.0392 -111.0394 236° Southwest 398 458 38,000  Level Denver Center
Fri 10:35:02 PM 36.9753 -111.1550 235° Southwest 402 463 38,000  Level Denver Center
Fri 10:36:04 PM 36.9253 -111.2469 236° Southwest 400 460 38,000  Level Denver Center
Fri 10:37:06 PM 36.8411 -111.4053 236° Southwest 393 452 38,000  Level Denver Center
Fri 10:38:07 PM 36.7753 -111.5222 235° Southwest 401 461 38,000  Level Denver Center
Fri 10:39:09 PM 36.7100 -111.6378 235° Southwest 406 467 38,000  Level Denver Center
Fri 10:40:10 PM 36.6453 -111.7544 235° Southwest 407 468 38,000  Level Denver Center
Fri 10:41:12 PM 36.5814 -111.8694 235° Southwest 405 466 38,000  Level Denver Center
Fri 10:42:04 PM 36.5406 -111.9681 243° Southwest 397 457 38,000  Level Los Angeles Center
Fri 10:43:06 PM 36.4869 -112.1181 246° West 394 453 38,000  Level Los Angeles Center
Fri 10:44:08 PM 36.4414 -112.2417 245° Southwest 392 451 38,000  Level Los Angeles Center
Fri 10:45:09 PM 36.3964 -112.3669 246° West 395 455 38,000  Level Los Angeles Center
Fri 10:46:11 PM 36.3489 -112.4925 245° Southwest 399 459 38,000  Level Los Angeles Center
Fri 10:47:13 PM 36.3033 -112.6194 246° West 401 461 38,000  Level Los Angeles Center
Fri 10:48:14 PM 36.2569 -112.7444 245° Southwest 399 459 38,000  Level Los Angeles Center
Fri 10:49:16 PM 36.2100 -112.8694 245° Southwest 400 460 38,000  Level Los Angeles Center
Fri 10:50:18 PM 36.1631 -112.9956 245° Southwest 402 463 38,000  Level Los Angeles Center
Fri 10:51:20 PM 36.1069 -113.1472 245° Southwest 404 465 38,000  Level Los Angeles Center
Fri 10:52:21 PM 36.0625 -113.2650 245° Southwest 402 463 38,000  Level Los Angeles Center
Fri 10:53:23 PM 36.0153 -113.3903 245° Southwest 401 461 38,000  Level Los Angeles Center
Fri 10:54:25 PM 35.9678 -113.5147 245° Southwest 401 461 38,000  Level Los Angeles Center
Fri 10:55:26 PM 35.9206 -113.6381 245° Southwest 399 459 38,000  Level Los Angeles Center
Fri 10:56:28 PM 35.8742 -113.7639 246° West 401 461 38,000  Level Los Angeles Center
Fri 10:57:30 PM 35.8172 -113.9117 245° Southwest 398 458 38,000 -146 Level Los Angeles Center
Fri 10:58:31 PM 35.7692 -114.0361 245° Southwest 400 460 37,700 -439 Descending Los Angeles Center
Fri 10:59:33 PM 35.7194 -114.1639 244° Southwest 411 473 37,100 -581 Descending Los Angeles Center
Fri 11:00:35 PM 35.6694 -114.2928 245° Southwest 416 479 36,500 -585 Descending Los Angeles Center
Fri 11:01:36 PM 35.6194 -114.4203 244° Southwest 414 476 35,900 -585 Descending Los Angeles Center
Fri 11:02:38 PM 35.5706 -114.5453 244° Southwest 407 468 35,300 -581 Descending Los Angeles Center
Fri 11:03:40 PM 35.5208 -114.6714 244° Southwest 409 471 34,700 -585 Descending Los Angeles Center
Fri 11:04:41 PM 35.4703 -114.7992 244° Southwest 414 476 34,100 -341 Descending Los Angeles Center
Fri 11:05:43 PM 35.4106 -114.9531 245° Southwest 415 478 34,000 -48 Descending Los Angeles Center
Fri 11:06:45 PM 35.3594 -115.0786 244° Southwest 411 473 34,000 -49 Level Los Angeles Center
Fri 11:07:46 PM 35.3092 -115.2067 244° Southwest 414 476 33,900 -537 Descending Los Angeles Center
Fri 11:08:48 PM 35.2569 -115.3350 244° Southwest 418 481 32,900 -968 Descending Los Angeles Center
Fri 11:09:50 PM 35.2050 -115.4647 244° Southwest 422 486 31,900 -1,024 Descending Los Angeles Center
Fri 11:10:51 PM 35.1511 -115.6011 244° Southwest 423 487 30,800 -780 Descending Los Angeles Center
Fri 11:11:53 PM 35.0983 -115.7308 244° Southwest 427 491 30,300 -484 Descending Los Angeles Center
Fri 11:12:55 PM 35.0461 -115.8606 244° Southwest 427 491 29,800 -581 Descending Los Angeles Center
Fri 11:13:57 PM 34.9922 -115.9883 243° Southwest 425 489 29,100 -1,512 Descending Los Angeles Center
Fri 11:14:58 PM 34.9394 -116.1192 244° Southwest 429 494 26,700 -2,341 Descending Los Angeles Center
Fri 11:16:00 PM 34.8867 -116.2453 243° Southwest 422 486 24,300 -1,742 Descending Los Angeles Center
Fri 11:17:02 PM 34.8264 -116.3925 244° Southwest 407 468 23,100 -1,065 Descending Los Angeles Center
Fri 11:18:04 PM 34.7922 -116.5242 252° West 414 476 22,100 -968 Descending Los Angeles Center
Fri 11:19:06 PM 34.7775 -116.6606 263° West 411 473 21,100 -976 Descending Los Angeles Center
Fri 11:20:07 PM 34.7647 -116.7950 263° West 403 464 20,100 -683 Descending Los Angeles Center
Fri 11:21:09 PM 34.7514 -116.9258 263° West 393 452 19,700 -677 Descending Los Angeles Center
Fri 11:22:11 PM 34.7378 -117.0558 263° West 389 448 18,700 -968 Descending Los Angeles Center
Fri 11:23:13 PM 34.7236 -117.1875 263° West 391 450 17,700 -968 Descending Los Angeles Center
Fri 11:24:15 PM 34.7117 -117.3089 263° West 367 422 16,700 -1,122 Descending Los Angeles Center
Fri 11:25:16 PM 34.6944 -117.4589 262° West 371 427 15,400 -1,024 Descending Los Angeles Center
Fri 11:26:18 PM 34.6803 -117.5594 260° West 375 432 14,600 -968 Descending Los Angeles Center
Fri 11:27:20 PM 34.6592 -117.7083 260° West 374 430 13,400 -1,065 Descending Los Angeles Center
Fri 11:28:22 PM 34.6431 -117.8231 260° West 348 400 12,400 -968 Descending Los Angeles Center
Fri 11:29:24 PM 34.6289 -117.9231 260° West 307 353 11,400 -976 Descending Los Angeles Center
Fri 11:30:25 PM 34.6161 -118.0203 261° West 293 337 10,400 -976 Descending Los Angeles Center
Fri 11:31:27 PM 34.6011 -118.1167 259° West 290 334 9,400 -1,016 Descending Los Angeles Center
Fri 11:32:29 PM 34.5850 -118.2278 260° West 285 328 8,300 -677 Descending Los Angeles Center
Fri 11:33:31 PM 34.5708 -118.3233 260° West 287 330 8,000 -145 Descending Los Angeles Center
Fri 11:34:33 PM 34.5500 -118.4136 254° West 284 327 8,000 -537 Level Los Angeles Center
Fri 11:35:34 PM 34.4939 -118.4772 223° Southwest 275 316 6,900 -1,024 Descending Los Angeles Center
Fri 11:36:36 PM 34.4372 -118.5342 220° Southwest 274 315 5,900 -973 Descending Los Angeles Center
Fri 11:37:25 PM 34.3667 -118.5500 190° South 240 276 5,100 -495 Descending Southern California TRACON
Fri 11:38:25 PM 34.3167 -118.5667 195° South 201 231 5,000 -50 Descending Southern California TRACON
Fri 11:39:25 PM 34.2667 -118.5833 195° South 195 224 5,000 -750 Level Southern California TRACON
Fri 11:40:25 PM 34.2167 -118.5667 165° South 200 230 3,500 -1,000 Descending Southern California TRACON
Fri 11:41:25 PM 34.2000 -118.5000 107° East 188 216 3,000 -500 Descending Southern California TRACON

Login

Don't have an account? Register now (free) for customized features, flight alerts, and more!